Lammers, Minnesota
Current Conditions -  °F | °C
As of 1:33 PM on Friday 24 Oct 2014 (Local Time) from KBJI Reporting Station
Clear Clear  
Wind Chill: 71°   Ceiling: Unl
Heat Index: 71°   Visibility: 10mi
Dew Point: 37°   Wind: 17mph
Humidity: 29%   Direction: 260°W
Pressure: 29.76"   Gusts: NA
Location:  47.545°N, 95.1206°W
Report Text: KBJI 241833Z AUTO 26015KT 10SM CLR 22/03 A2976 RMK AO2 T02160029
Loading
Personal Weather Stations






























Interactive Weather Map
Tropical Storm Tracking
New forecast layout! Learn more

10-Day Weather Forecast

Advertisements
Track Severe Weather on mobile